createdAt,value
2018-08-16T00:01:06.840Z,15.65
2018-08-16T00:03:38.872Z,15.65
2018-08-16T00:06:10.902Z,15.57
2018-08-16T00:08:43.230Z,15.57
2018-08-16T00:11:15.258Z,15.52
2018-08-16T00:13:47.309Z,15.48
2018-08-16T00:16:19.326Z,15.38
2018-08-16T00:18:51.530Z,15.31
2018-08-16T00:21:23.575Z,15.31
2018-08-16T00:23:55.562Z,15.28
2018-08-16T00:26:27.554Z,15.22
2018-08-16T00:28:59.589Z,15.24
2018-08-16T00:31:31.607Z,15.37
2018-08-16T00:34:03.627Z,15.39
2018-08-16T00:36:35.647Z,15.42
2018-08-16T00:39:08.514Z,15.35
2018-08-16T00:41:40.506Z,15.32
2018-08-16T00:44:12.508Z,15.20
2018-08-16T00:46:44.519Z,15.15
2018-08-16T00:49:16.561Z,15.13
2018-08-16T00:51:48.595Z,15.08
2018-08-16T00:54:20.639Z,15.13
2018-08-16T00:56:52.648Z,15.06
2018-08-16T00:59:24.670Z,15.03
2018-08-16T01:01:56.674Z,14.92
2018-08-16T01:04:28.710Z,14.84
2018-08-16T01:07:00.742Z,14.00
2018-08-16T01:09:32.751Z,14.84
2018-08-16T01:12:04.754Z,14.73
2018-08-16T01:14:36.741Z,14.71
2018-08-16T01:17:08.983Z,14.74
2018-08-16T01:19:47.448Z,14.69
2018-08-16T01:22:19.497Z,14.70
2018-08-16T01:24:51.496Z,14.66
2018-08-16T01:27:23.511Z,14.55
2018-08-16T01:29:55.468Z,14.56
2018-08-16T01:32:27.445Z,14.52
2018-08-16T01:34:59.433Z,14.48
2018-08-16T01:37:31.407Z,14.44
2018-08-16T01:40:03.982Z,14.52
2018-08-16T01:42:36.770Z,14.49
2018-08-16T01:45:09.448Z,14.42
2018-08-16T01:47:41.427Z,14.52
2018-08-16T01:50:13.403Z,14.55
2018-08-16T01:52:45.374Z,14.40
2018-08-16T01:55:17.363Z,14.25
2018-08-16T01:57:49.323Z,14.30
2018-08-16T02:00:21.306Z,14.31
2018-08-16T02:02:53.348Z,14.39
2018-08-16T02:05:25.295Z,14.41
2018-08-16T02:07:57.309Z,14.33
2018-08-16T02:10:29.314Z,14.23
2018-08-16T02:13:01.287Z,14.18
2018-08-16T02:15:33.259Z,14.20
2018-08-16T02:18:05.975Z,14.08
2018-08-16T02:20:37.942Z,13.95
2018-08-16T02:23:09.953Z,13.93
2018-08-16T02:25:41.950Z,14.12
2018-08-16T02:28:13.954Z,14.02
2018-08-16T02:30:50.566Z,14.10
2018-08-16T02:33:22.555Z,14.08
2018-08-16T02:35:54.571Z,14.08
2018-08-16T02:38:26.563Z,14.02
2018-08-16T02:40:58.567Z,14.02
2018-08-16T02:43:30.574Z,14.00
2018-08-16T02:46:02.571Z,14.12
2018-08-16T02:48:34.559Z,14.14
2018-08-16T02:51:06.562Z,14.09
2018-08-16T02:53:38.534Z,14.08
2018-08-16T02:56:10.554Z,14.13
2018-08-16T02:58:42.576Z,14.11
2018-08-16T03:01:14.582Z,14.09
2018-08-16T03:03:46.568Z,14.11
2018-08-16T03:06:18.571Z,14.22
2018-08-16T03:08:50.558Z,14.23
2018-08-16T03:11:22.555Z,14.22
2018-08-16T03:14:02.164Z,14.15
2018-08-16T03:16:34.152Z,14.08
2018-08-16T03:19:06.178Z,14.08
2018-08-16T03:21:38.181Z,14.05
2018-08-16T03:24:10.151Z,13.90
2018-08-16T03:26:42.159Z,13.85
2018-08-16T03:29:14.192Z,13.70
2018-08-16T03:31:46.159Z,13.55
2018-08-16T03:34:18.160Z,13.53
2018-08-16T03:36:50.138Z,13.62
2018-08-16T03:39:22.088Z,13.62
2018-08-16T03:41:54.050Z,13.58
2018-08-16T03:44:26.054Z,13.56
2018-08-16T03:46:58.116Z,13.48
2018-08-16T03:49:30.094Z,13.61
2018-08-16T03:52:02.070Z,13.66
2018-08-16T03:54:34.074Z,13.67
2018-08-16T03:57:06.026Z,13.62
2018-08-16T03:59:38.011Z,13.52
2018-08-16T04:02:09.986Z,13.45
2018-08-16T04:04:42.013Z,13.40
2018-08-16T04:07:13.978Z,13.36
2018-08-16T04:09:45.942Z,13.36
2018-08-16T04:12:17.904Z,13.45
2018-08-16T04:14:49.859Z,13.54
2018-08-16T04:17:26.878Z,13.65
2018-08-16T04:19:58.863Z,13.71
2018-08-16T04:22:30.858Z,13.79
2018-08-16T04:25:03.303Z,13.85
2018-08-16T04:27:35.281Z,13.91
2018-08-16T04:30:07.314Z,13.91
2018-08-16T04:32:39.295Z,14.00
2018-08-16T04:35:11.370Z,14.05
2018-08-16T04:37:43.281Z,14.11
2018-08-16T04:40:15.303Z,14.27
2018-08-16T04:42:47.391Z,14.36
2018-08-16T04:45:23.399Z,14.49
2018-08-16T04:47:55.402Z,14.56
2018-08-16T04:50:27.415Z,14.64
2018-08-16T04:53:05.799Z,14.73
2018-08-16T04:55:37.814Z,14.73
2018-08-16T04:58:09.814Z,14.82
2018-08-16T05:00:41.847Z,14.87
2018-08-16T05:03:13.896Z,14.91
2018-08-16T05:05:45.890Z,14.99
2018-08-16T05:08:17.869Z,15.09
2018-08-16T05:10:49.864Z,15.15
2018-08-16T05:13:21.859Z,15.16
2018-08-16T05:15:53.856Z,15.26
2018-08-16T05:18:25.834Z,15.36
2018-08-16T05:20:57.846Z,15.50
2018-08-16T05:23:29.843Z,15.69
2018-08-16T05:26:01.823Z,15.95
2018-08-16T05:28:33.843Z,16.72
2018-08-16T05:31:05.843Z,17.98
2018-08-16T05:33:37.813Z,18.65
2018-08-16T05:36:09.809Z,19.36
2018-08-16T05:38:41.828Z,19.46
2018-08-16T05:41:13.831Z,19.98
2018-08-16T05:43:45.835Z,20.27
2018-08-16T05:46:17.868Z,21.17
2018-08-16T05:48:49.905Z,22.02
2018-08-16T05:51:21.888Z,22.01
2018-08-16T05:53:53.871Z,22.86
2018-08-16T05:56:25.893Z,23.27
2018-08-16T05:58:57.962Z,23.69
2018-08-16T06:01:30.022Z,24.35
2018-08-16T06:04:02.097Z,24.32
2018-08-16T06:06:34.130Z,24.39
2018-08-16T06:09:07.694Z,24.93
2018-08-16T06:11:39.733Z,25.46
2018-08-16T06:14:11.847Z,26.13
2018-08-16T06:16:43.967Z,26.53
2018-08-16T06:19:16.077Z,27.43
2018-08-16T06:21:48.169Z,27.33
2018-08-16T06:24:20.256Z,27.63
2018-08-16T06:26:52.311Z,27.71
2018-08-16T06:29:24.330Z,28.84
2018-08-16T06:31:56.342Z,28.79
2018-08-16T06:34:28.408Z,27.84
2018-08-16T06:37:00.434Z,27.91
2018-08-16T06:39:32.488Z,28.60
2018-08-16T06:42:04.757Z,28.77
2018-08-16T06:44:36.786Z,28.59
2018-08-16T06:47:13.102Z,27.61
2018-08-16T06:49:46.363Z,27.63
2018-08-16T06:52:18.398Z,27.13
2018-08-16T06:54:50.523Z,27.81
2018-08-16T06:57:22.541Z,28.69
2018-08-16T06:59:54.571Z,29.00
2018-08-16T07:02:26.985Z,28.17
2018-08-16T07:04:59.106Z,28.55
2018-08-16T07:07:31.139Z,29.44
2018-08-16T07:10:04.306Z,30.08
2018-08-16T07:12:36.448Z,29.94
2018-08-16T07:15:12.134Z,29.94
2018-08-16T07:17:44.624Z,30.47
2018-08-16T07:20:16.686Z,30.83
2018-08-16T07:22:48.719Z,30.76
2018-08-16T07:25:20.764Z,30.65
2018-08-16T07:27:52.802Z,30.62
2018-08-16T07:30:24.847Z,30.64
2018-08-16T07:32:56.871Z,30.31
2018-08-16T07:35:28.993Z,30.44
2018-08-16T07:38:01.043Z,30.76
2018-08-16T07:40:33.083Z,30.72
2018-08-16T07:43:05.110Z,30.87
2018-08-16T07:45:37.216Z,30.93
2018-08-16T07:48:09.327Z,31.10
2018-08-16T07:50:41.349Z,31.92
2018-08-16T07:53:13.372Z,31.66
2018-08-16T07:55:45.453Z,31.58
2018-08-16T07:58:17.523Z,31.54
2018-08-16T08:00:49.563Z,32.13
2018-08-16T08:03:21.576Z,31.82
2018-08-16T08:05:53.583Z,31.08
2018-08-16T08:08:25.635Z,31.80
2018-08-16T08:10:57.650Z,32.12
2018-08-16T08:13:29.707Z,31.35
2018-08-16T08:16:01.731Z,31.98
2018-08-16T08:18:33.763Z,31.59
2018-08-16T08:21:05.780Z,31.96
2018-08-16T08:23:37.857Z,32.26
2018-08-16T08:26:09.843Z,32.70
2018-08-16T08:28:41.866Z,32.66
2018-08-16T08:31:13.870Z,31.06
2018-08-16T08:33:45.932Z,31.38
2018-08-16T08:36:30.287Z,30.78
2018-08-16T08:39:02.568Z,30.76
2018-08-16T08:41:34.506Z,31.50
2018-08-16T08:44:18.592Z,31.24
2018-08-16T08:46:51.452Z,31.85
2018-08-16T08:49:23.520Z,31.70
2018-08-16T08:51:55.559Z,30.16
2018-08-16T08:54:55.123Z,30.00
2018-08-16T08:57:38.778Z,32.01
2018-08-16T09:00:10.803Z,32.31
2018-08-16T09:02:42.933Z,31.78
2018-08-16T09:05:15.014Z,31.56
2018-08-16T09:07:47.075Z,30.60
2018-08-16T09:11:26.875Z,31.58
2018-08-16T09:14:10.392Z,30.94
2018-08-16T09:16:42.395Z,30.86
2018-08-16T09:19:14.436Z,31.84
2018-08-16T09:21:46.454Z,31.46
2018-08-16T09:24:18.471Z,31.15
2018-08-16T09:26:50.467Z,30.78
2018-08-16T09:30:38.458Z,31.11
2018-08-16T09:33:21.943Z,31.67
2018-08-16T09:35:53.928Z,31.67
2018-08-16T09:38:25.932Z,32.20
2018-08-16T09:40:57.949Z,31.99
2018-08-16T09:43:30.024Z,31.53
2018-08-16T09:47:13.076Z,32.27
2018-08-16T09:49:47.309Z,32.12
2018-08-16T09:52:20.211Z,31.32
2018-08-16T09:54:52.445Z,31.78
2018-08-16T09:57:24.515Z,31.75
2018-08-16T09:59:56.566Z,31.76
2018-08-16T10:02:28.603Z,32.04
2018-08-16T10:05:00.655Z,31.31
2018-08-16T10:07:32.730Z,31.40
2018-08-16T10:10:04.747Z,31.55
2018-08-16T10:12:36.759Z,32.22
2018-08-16T10:15:08.768Z,32.13
2018-08-16T10:17:40.787Z,33.39
2018-08-16T10:20:12.848Z,33.92
2018-08-16T10:22:44.875Z,32.36
2018-08-16T10:25:16.903Z,32.31
2018-08-16T10:27:48.901Z,32.31
2018-08-16T10:33:07.954Z,31.66
2018-08-16T10:35:39.936Z,32.32
2018-08-16T10:38:11.927Z,32.67
2018-08-16T10:40:43.933Z,32.46
2018-08-16T10:43:15.915Z,33.18
2018-08-16T10:45:48.191Z,33.74
2018-08-16T10:48:20.175Z,34.10
2018-08-16T10:50:52.234Z,34.34
2018-08-16T10:53:24.344Z,33.72
2018-08-16T10:55:56.660Z,33.26
2018-08-16T10:58:29.111Z,32.86
2018-08-16T11:01:03.259Z,32.91
2018-08-16T11:03:35.264Z,32.79
2018-08-16T11:06:07.287Z,33.18
2018-08-16T11:08:39.291Z,33.33
2018-08-16T11:11:11.318Z,33.60
2018-08-16T11:13:43.303Z,33.16
2018-08-16T11:16:15.357Z,32.56
2018-08-16T11:18:47.430Z,33.08
2018-08-16T11:21:19.524Z,32.59
2018-08-16T11:23:51.502Z,32.74
2018-08-16T11:26:23.495Z,33.18
2018-08-16T11:28:55.502Z,32.81
2018-08-16T11:31:27.502Z,32.20
2018-08-16T11:33:59.514Z,32.59
2018-08-16T11:36:31.539Z,33.11
2018-08-16T11:39:05.406Z,33.61
2018-08-16T11:41:37.457Z,32.17
2018-08-16T11:44:09.432Z,32.26
2018-08-16T11:46:41.590Z,32.29
2018-08-16T11:49:13.543Z,33.61
2018-08-16T11:51:45.667Z,34.13
2018-08-16T11:54:17.900Z,33.90
2018-08-16T11:56:49.967Z,32.60
2018-08-16T11:59:22.042Z,33.32
2018-08-16T12:01:54.106Z,33.95
2018-08-16T12:04:26.129Z,33.72
2018-08-16T12:06:58.251Z,33.98
2018-08-16T12:09:30.252Z,34.41
2018-08-16T12:12:02.375Z,33.42
2018-08-16T12:14:34.409Z,32.98
2018-08-16T12:17:06.470Z,33.17
2018-08-16T12:19:38.478Z,32.97
2018-08-16T12:22:10.479Z,33.15
2018-08-16T12:24:42.471Z,32.96
2018-08-16T12:27:14.561Z,32.95
2018-08-16T12:29:46.556Z,33.09
2018-08-16T12:32:18.535Z,34.34
2018-08-16T12:34:50.547Z,33.15
2018-08-16T12:37:22.546Z,33.85
2018-08-16T12:39:54.511Z,34.23
2018-08-16T12:42:26.538Z,34.55
2018-08-16T12:44:58.567Z,34.96
2018-08-16T12:47:30.548Z,34.64
2018-08-16T12:50:02.597Z,35.47
2018-08-16T12:52:34.603Z,35.52
2018-08-16T12:55:06.590Z,35.66
2018-08-16T12:57:38.584Z,35.43
2018-08-16T13:00:14.495Z,35.20
2018-08-16T13:02:47.484Z,34.66
2018-08-16T13:05:19.492Z,35.84
2018-08-16T13:07:51.503Z,36.19
2018-08-16T13:10:23.489Z,36.19
2018-08-16T13:12:55.446Z,36.06
2018-08-16T13:15:27.455Z,36.98
2018-08-16T13:17:59.499Z,35.32
2018-08-16T13:20:31.531Z,35.99
2018-08-16T13:23:03.555Z,36.84
2018-08-16T13:25:35.543Z,36.30
2018-08-16T13:28:07.557Z,34.92
2018-08-16T13:30:39.554Z,35.75
2018-08-16T13:33:11.587Z,37.44
2018-08-16T13:35:43.656Z,36.83
2018-08-16T13:38:15.644Z,36.42
2018-08-16T13:40:47.687Z,36.52
2018-08-16T13:43:19.675Z,35.24
2018-08-16T13:45:51.691Z,36.32
2018-08-16T13:48:23.693Z,35.81
2018-08-16T13:50:55.666Z,36.16
2018-08-16T13:53:27.660Z,35.36
2018-08-16T13:55:59.794Z,36.05
2018-08-16T13:58:31.854Z,36.45
2018-08-16T14:01:03.866Z,36.86
2018-08-16T14:03:35.839Z,37.49
2018-08-16T14:06:07.866Z,35.98
2018-08-16T14:08:39.907Z,36.30
2018-08-16T14:11:11.992Z,36.44
2018-08-16T14:13:44.010Z,35.56
2018-08-16T14:16:15.995Z,36.03
2018-08-16T14:18:48.049Z,36.88
2018-08-16T14:21:20.038Z,36.23
2018-08-16T14:23:52.075Z,35.34
2018-08-16T14:26:24.171Z,34.34
2018-08-16T14:28:56.203Z,34.97
2018-08-16T14:31:28.179Z,35.35
2018-08-16T14:34:00.268Z,36.99
2018-08-16T14:36:32.263Z,37.56
2018-08-16T14:39:06.965Z,35.35
2018-08-16T14:41:39.003Z,34.21
2018-08-16T14:44:11.021Z,35.59
2018-08-16T14:46:43.036Z,34.54
2018-08-16T14:49:15.807Z,34.80
2018-08-16T14:51:47.788Z,34.32
2018-08-16T14:54:19.766Z,34.91
2018-08-16T14:56:51.776Z,34.71
2018-08-16T14:59:23.800Z,34.67
2018-08-16T15:01:55.831Z,35.50
2018-08-16T15:04:27.830Z,36.05
2018-08-16T15:06:59.882Z,35.52
2018-08-16T15:16:39.907Z,35.74
2018-08-16T15:19:11.949Z,35.00
2018-08-16T15:21:43.956Z,36.06
2018-08-16T15:24:17.716Z,35.97
2018-08-16T15:26:50.019Z,36.03
2018-08-16T15:29:22.015Z,35.15
2018-08-16T15:31:54.074Z,34.16
2018-08-16T15:34:26.064Z,35.13
2018-08-16T15:36:58.106Z,35.83
2018-08-16T15:39:30.116Z,36.44
2018-08-16T15:42:02.120Z,35.23
2018-08-16T15:44:34.094Z,35.39
2018-08-16T15:47:06.069Z,35.62
2018-08-16T15:49:38.122Z,34.86
2018-08-16T15:52:10.098Z,34.34
2018-08-16T15:54:42.132Z,34.18
2018-08-16T15:57:14.234Z,33.64
2018-08-16T15:59:46.232Z,34.72
2018-08-16T16:02:18.179Z,35.38
2018-08-16T16:04:50.190Z,34.42
2018-08-16T16:07:22.195Z,33.80
2018-08-16T16:09:54.168Z,33.65
2018-08-16T16:12:26.148Z,33.27
2018-08-16T16:14:58.582Z,32.71
2018-08-16T16:17:30.598Z,32.74
2018-08-16T16:20:02.683Z,32.01
2018-08-16T16:22:35.071Z,31.88
2018-08-16T16:25:07.690Z,31.25
2018-08-16T16:27:39.770Z,30.87
2018-08-16T16:30:11.796Z,30.28
2018-08-16T16:32:43.813Z,30.19
2018-08-16T16:35:15.808Z,29.93
2018-08-16T16:37:47.788Z,29.59
2018-08-16T16:40:19.842Z,29.57
2018-08-16T16:42:51.927Z,29.56
2018-08-16T16:45:23.912Z,29.40
2018-08-16T16:47:55.897Z,29.34
2018-08-16T16:50:27.922Z,29.18
2018-08-16T16:53:00.107Z,29.09
2018-08-16T16:55:32.084Z,28.79
2018-08-16T16:58:04.614Z,28.63
2018-08-16T17:00:36.640Z,28.52
2018-08-16T17:03:08.700Z,28.52
2018-08-16T17:05:40.713Z,28.44
2018-08-16T17:08:12.815Z,28.36
2018-08-16T17:10:44.883Z,28.23
2018-08-16T17:13:16.874Z,28.06
2018-08-16T17:15:48.886Z,27.93
2018-08-16T17:18:20.898Z,27.87
2018-08-16T17:20:53.095Z,27.73
2018-08-16T17:23:25.127Z,27.62
2018-08-16T17:25:57.251Z,27.64
2018-08-16T17:28:29.309Z,27.51
2018-08-16T17:31:01.295Z,27.35
2018-08-16T17:33:33.317Z,27.35
2018-08-16T17:36:05.338Z,27.22
2018-08-16T17:38:37.356Z,26.99
2018-08-16T17:41:09.451Z,26.92
2018-08-16T17:43:41.374Z,26.70
2018-08-16T17:46:13.387Z,26.57
2018-08-16T17:48:45.426Z,26.45
2018-08-16T17:51:17.464Z,26.38
2018-08-16T17:53:49.531Z,26.20
2018-08-16T17:56:21.551Z,26.05
2018-08-16T17:58:53.746Z,25.92
2018-08-16T18:01:25.813Z,25.77
2018-08-16T18:03:57.987Z,25.68
2018-08-16T18:06:30.028Z,25.63
2018-08-16T18:09:02.130Z,25.41
2018-08-16T18:11:34.253Z,25.28
2018-08-16T18:14:06.450Z,25.08
2018-08-16T18:16:38.478Z,24.93
2018-08-16T18:19:10.566Z,24.78
2018-08-16T18:21:42.629Z,24.57
2018-08-16T18:24:14.708Z,24.37
2018-08-16T18:26:46.824Z,24.39
2018-08-16T18:29:18.871Z,24.26
2018-08-16T18:31:51.033Z,24.10
2018-08-16T18:34:23.051Z,23.93
2018-08-16T18:36:55.217Z,23.81
2018-08-16T18:39:27.297Z,23.63
2018-08-16T18:41:59.517Z,23.55
2018-08-16T18:44:31.669Z,23.43
2018-08-16T18:47:03.684Z,23.35
2018-08-16T18:49:35.801Z,23.30
2018-08-16T18:52:07.890Z,23.20
2018-08-16T18:54:39.961Z,23.06
2018-08-16T18:57:12.054Z,22.99
2018-08-16T18:59:44.106Z,22.87
2018-08-16T19:02:16.177Z,22.71
2018-08-16T19:04:48.230Z,22.64
2018-08-16T19:07:20.306Z,22.74
2018-08-16T19:09:52.418Z,22.75
2018-08-16T19:12:24.574Z,22.66
2018-08-16T19:14:56.567Z,22.51
2018-08-16T19:17:28.571Z,22.38
2018-08-16T19:20:00.687Z,22.33
2018-08-16T19:22:32.811Z,22.31
2018-08-16T19:25:05.694Z,22.15
2018-08-16T19:27:37.883Z,22.11
2018-08-16T19:30:10.011Z,21.97
2018-08-16T19:32:42.020Z,21.86
2018-08-16T19:35:14.200Z,21.82
2018-08-16T19:37:46.285Z,21.74
2018-08-16T19:40:18.341Z,21.66
2018-08-16T19:42:50.442Z,21.57
2018-08-16T19:45:22.882Z,21.40
2018-08-16T19:47:54.933Z,21.27
2018-08-16T19:50:26.990Z,21.07
2018-08-16T19:52:59.163Z,20.98
2018-08-16T19:55:31.308Z,20.83
2018-08-16T19:58:03.397Z,20.80
2018-08-16T20:00:35.447Z,20.82
2018-08-16T20:03:07.688Z,20.80
2018-08-16T20:05:39.778Z,20.78
2018-08-16T20:08:11.820Z,20.66
2018-08-16T20:10:43.873Z,20.66
2018-08-16T20:13:15.932Z,20.60
2018-08-16T20:15:47.985Z,20.55
2018-08-16T20:18:21.263Z,20.54
2018-08-16T20:20:53.369Z,20.55
2018-08-16T20:23:25.560Z,20.52
2018-08-16T20:25:57.715Z,20.42
2018-08-16T20:28:29.882Z,20.31
2018-08-16T20:31:01.974Z,20.23
2018-08-16T20:33:34.002Z,20.28
2018-08-16T20:36:06.025Z,20.15
2018-08-16T20:38:38.130Z,19.91
2018-08-16T20:41:10.222Z,19.98
2018-08-16T20:43:42.269Z,19.95
2018-08-16T20:46:14.380Z,19.90
2018-08-16T20:48:46.395Z,19.87
2018-08-16T20:51:18.371Z,19.79
2018-08-16T20:53:50.517Z,19.57
2018-08-16T20:56:22.519Z,19.51
2018-08-16T20:58:54.551Z,19.44
2018-08-16T21:01:26.546Z,19.52
2018-08-16T21:03:58.515Z,19.54
2018-08-16T21:06:30.513Z,19.42
2018-08-16T21:09:03.923Z,19.32
2018-08-16T21:11:35.907Z,19.19
2018-08-16T21:14:07.994Z,19.17
2018-08-16T21:16:39.971Z,19.09
2018-08-16T21:19:11.982Z,18.93
2018-08-16T21:21:44.027Z,18.78
2018-08-16T21:24:15.991Z,18.87
2018-08-16T21:26:47.955Z,18.73
2018-08-16T21:29:19.943Z,18.62
2018-08-16T21:31:51.934Z,18.50
2018-08-16T21:34:24.036Z,18.48
2018-08-16T21:36:55.971Z,18.47
2018-08-16T21:39:27.958Z,18.52
2018-08-16T21:41:59.933Z,18.36
2018-08-16T21:44:31.898Z,18.38
2018-08-16T21:47:03.881Z,18.44
2018-08-16T21:49:35.877Z,18.35
2018-08-16T21:52:08.305Z,18.42
2018-08-16T21:54:40.276Z,18.48
2018-08-16T21:57:12.253Z,18.40
2018-08-16T21:59:44.232Z,18.32
2018-08-16T22:02:16.219Z,18.17
2018-08-16T22:04:48.188Z,18.03
2018-08-16T22:07:29.959Z,17.88
2018-08-16T22:10:01.939Z,17.88
2018-08-16T22:12:33.945Z,17.87
2018-08-16T22:15:05.908Z,17.92
2018-08-16T22:17:37.898Z,17.87
2018-08-16T22:20:09.914Z,17.72
2018-08-16T22:22:41.940Z,17.78
2018-08-16T22:25:13.974Z,17.64
2018-08-16T22:27:46.032Z,17.52
2018-08-16T22:30:18.046Z,17.51
2018-08-16T22:32:50.060Z,17.45
2018-08-16T22:35:22.031Z,17.42
2018-08-16T22:37:54.033Z,17.36
2018-08-16T22:40:26.028Z,17.29
2018-08-16T22:42:58.035Z,17.31
2018-08-16T22:45:30.025Z,17.38
2018-08-16T22:48:02.040Z,17.39
2018-08-16T22:50:34.113Z,17.36
2018-08-16T22:53:06.147Z,17.27
2018-08-16T22:55:38.142Z,17.10
2018-08-16T22:58:10.160Z,16.99
2018-08-16T23:00:42.177Z,17.04
2018-08-16T23:03:14.310Z,17.16
2018-08-16T23:05:46.309Z,17.17
2018-08-16T23:08:18.312Z,17.17
2018-08-16T23:10:50.313Z,17.07
2018-08-16T23:13:22.330Z,16.94
2018-08-16T23:15:54.306Z,16.84
2018-08-16T23:18:26.327Z,16.78
2018-08-16T23:20:58.314Z,16.74
2018-08-16T23:23:30.307Z,16.72
2018-08-16T23:26:02.274Z,16.58
2018-08-16T23:28:34.269Z,16.49
2018-08-16T23:31:06.234Z,16.42
2018-08-16T23:33:38.212Z,16.41
2018-08-16T23:36:10.170Z,16.41
2018-08-16T23:38:42.168Z,16.42
2018-08-16T23:41:14.119Z,16.40
2018-08-16T23:43:46.120Z,16.30
2018-08-16T23:46:18.126Z,16.34
2018-08-16T23:48:50.095Z,16.23
2018-08-16T23:51:22.155Z,16.14
2018-08-16T23:53:54.134Z,16.21
2018-08-16T23:56:26.120Z,16.23
2018-08-16T23:58:58.143Z,16.11
